createdAt,value
2023-03-03T00:01:54.958Z,53.25
2023-03-03T00:04:21.861Z,48.05
2023-03-03T00:06:48.765Z,47.15
2023-03-03T00:09:15.806Z,46.08
2023-03-03T00:11:42.724Z,53.53
2023-03-03T00:14:26.157Z,46.92
2023-03-03T00:16:53.050Z,46.22
2023-03-03T00:19:20.686Z,42.90
2023-03-03T00:21:50.622Z,45.70
2023-03-03T00:24:24.501Z,45.13
2023-03-03T00:26:57.090Z,51.35
2023-03-03T00:29:48.457Z,48.55
2023-03-03T00:32:15.307Z,52.17
2023-03-03T00:34:43.824Z,51.47
2023-03-03T00:37:34.750Z,43.47
2023-03-03T00:40:23.892Z,52.58
2023-03-03T00:42:57.448Z,44.58
2023-03-03T00:45:56.402Z,46.33
2023-03-03T00:48:36.825Z,43.80
2023-03-03T00:51:20.971Z,39.28
2023-03-03T00:53:48.398Z,33.75
2023-03-03T00:56:15.866Z,39.50
2023-03-03T00:58:44.269Z,41.10
2023-03-03T01:01:11.373Z,36.50
2023-03-03T01:03:44.675Z,38.13
2023-03-03T01:06:12.579Z,41.33
2023-03-03T01:08:40.032Z,36.10
2023-03-03T01:11:22.581Z,35.33
2023-03-03T01:13:52.749Z,35.95
2023-03-03T01:16:20.440Z,40.08
2023-03-03T01:18:47.470Z,40.50
2023-03-03T01:21:14.443Z,49.53
2023-03-03T01:23:41.733Z,43.65
2023-03-03T01:26:08.697Z,43.70
2023-03-03T01:28:35.816Z,38.92
2023-03-03T01:31:05.280Z,38.55
2023-03-03T01:33:34.273Z,37.63
2023-03-03T01:36:02.362Z,34.97
2023-03-03T01:38:29.686Z,35.83
2023-03-03T01:40:59.701Z,34.63
2023-03-03T01:43:31.225Z,38.35
2023-03-03T01:45:58.098Z,35.42
2023-03-03T01:48:39.956Z,34.40
2023-03-03T01:51:22.400Z,37.67
2023-03-03T01:53:58.502Z,38.80
2023-03-03T01:56:26.947Z,35.08
2023-03-03T01:59:02.329Z,41.42
2023-03-03T02:01:31.860Z,33.85
2023-03-03T02:03:59.791Z,37.28
2023-03-03T02:06:33.990Z,37.10
2023-03-03T02:09:31.733Z,35.83
2023-03-03T02:12:05.832Z,29.42
2023-03-03T02:14:32.784Z,32.33
2023-03-03T02:16:59.892Z,32.15
2023-03-03T02:20:01.605Z,36.80
2023-03-03T02:22:51.699Z,33.22
2023-03-03T02:25:31.642Z,37.75
2023-03-03T02:27:58.936Z,32.08
2023-03-03T02:30:26.888Z,38.15
2023-03-03T02:32:53.805Z,28.02
2023-03-03T02:35:39.665Z,39.28
2023-03-03T02:38:30.569Z,33.83
2023-03-03T02:41:10.027Z,38.65
2023-03-03T02:44:04.549Z,36.75
2023-03-03T02:46:39.987Z,34.33
2023-03-03T02:49:09.359Z,39.22
2023-03-03T02:51:37.732Z,44.08
2023-03-03T02:54:07.021Z,45.72
2023-03-03T02:56:34.689Z,41.50
2023-03-03T02:59:01.854Z,31.85
2023-03-03T03:01:36.934Z,40.13
2023-03-03T03:04:14.896Z,41.75
2023-03-03T03:06:45.352Z,39.05
2023-03-03T03:09:15.668Z,43.17
2023-03-03T03:11:43.868Z,50.95
2023-03-03T03:14:13.383Z,40.20
2023-03-03T03:16:41.904Z,44.13
2023-03-03T03:19:09.562Z,46.17
2023-03-03T03:21:37.747Z,40.40
2023-03-03T03:24:07.061Z,40.35
2023-03-03T03:26:36.456Z,42.10
2023-03-03T03:29:03.933Z,45.45
2023-03-03T03:31:32.462Z,41.03
2023-03-03T03:34:00.561Z,44.42
2023-03-03T03:36:29.247Z,40.10
2023-03-03T03:38:56.527Z,35.75
2023-03-03T03:41:23.465Z,41.35
2023-03-03T03:43:50.485Z,45.00
2023-03-03T03:46:17.649Z,46.58
2023-03-03T03:48:45.593Z,43.00
2023-03-03T03:51:14.221Z,42.70
2023-03-03T03:53:42.247Z,42.47
2023-03-03T03:56:09.251Z,42.95
2023-03-03T03:58:36.331Z,36.33
2023-03-03T04:01:08.980Z,45.08
2023-03-03T04:03:41.682Z,45.58
2023-03-03T04:06:12.191Z,44.90
2023-03-03T04:08:39.216Z,49.38
2023-03-03T04:11:06.148Z,50.13
2023-03-03T04:13:35.256Z,46.75
2023-03-03T04:16:05.212Z,47.15
2023-03-03T04:18:32.297Z,49.38
2023-03-03T04:20:59.931Z,48.58
2023-03-03T04:23:27.880Z,54.50
2023-03-03T04:25:55.298Z,42.92
2023-03-03T04:28:25.245Z,47.92
2023-03-03T04:30:52.889Z,41.38
2023-03-03T04:33:21.895Z,32.10
2023-03-03T04:35:49.941Z,38.00
2023-03-03T04:38:17.685Z,28.95
2023-03-03T04:40:45.824Z,30.80
2023-03-03T04:43:14.145Z,37.10
2023-03-03T04:45:41.665Z,33.65
2023-03-03T04:48:09.505Z,33.65
2023-03-03T04:50:37.181Z,37.58
2023-03-03T04:53:04.946Z,35.63
2023-03-03T04:55:31.881Z,28.52
2023-03-03T04:57:58.849Z,31.65
2023-03-03T05:00:26.177Z,29.75
2023-03-03T05:02:53.218Z,25.42
2023-03-03T05:05:20.526Z,31.75
2023-03-03T05:07:47.486Z,26.08
2023-03-03T05:10:14.872Z,34.05
2023-03-03T05:12:41.879Z,36.63
2023-03-03T05:15:09.360Z,41.30
2023-03-03T05:17:36.784Z,44.05
2023-03-03T05:20:08.571Z,41.75
2023-03-03T05:22:35.542Z,50.38
2023-03-03T05:25:02.530Z,52.35
2023-03-03T05:27:29.513Z,47.53
2023-03-03T05:29:56.773Z,39.00
2023-03-03T05:32:23.772Z,40.17
2023-03-03T05:34:52.444Z,39.95
2023-03-03T05:37:19.314Z,52.67
2023-03-03T05:39:46.314Z,42.35
2023-03-03T05:42:13.826Z,40.67
2023-03-03T05:44:40.836Z,41.22
2023-03-03T05:47:08.242Z,40.90
2023-03-03T05:49:35.750Z,40.58
2023-03-03T05:52:02.826Z,43.53
2023-03-03T05:54:29.765Z,38.97
2023-03-03T05:56:57.403Z,38.33
2023-03-03T05:59:24.902Z,39.03
2023-03-03T06:01:51.994Z,41.13
2023-03-03T06:04:19.138Z,31.85
2023-03-03T06:06:46.164Z,40.58
2023-03-03T06:09:13.319Z,34.15
2023-03-03T06:11:40.518Z,39.67
2023-03-03T06:14:07.598Z,32.10
2023-03-03T06:16:34.779Z,42.28
2023-03-03T06:19:01.918Z,34.45
2023-03-03T06:21:29.031Z,36.90
2023-03-03T06:23:56.127Z,39.28
2023-03-03T06:26:23.642Z,34.50
2023-03-03T06:28:53.987Z,38.88
2023-03-03T06:31:21.646Z,39.53
2023-03-03T06:33:48.568Z,39.47
2023-03-03T06:36:15.499Z,47.65
2023-03-03T06:38:42.524Z,40.80
2023-03-03T06:41:09.695Z,41.97
2023-03-03T06:43:37.338Z,40.15
2023-03-03T06:46:05.525Z,38.85
2023-03-03T06:48:33.496Z,36.58
2023-03-03T06:51:04.076Z,32.05
2023-03-03T06:53:33.252Z,35.70
2023-03-03T06:56:01.901Z,31.80
2023-03-03T06:58:29.598Z,36.53
2023-03-03T07:01:01.624Z,32.88
2023-03-03T07:03:34.637Z,38.75
2023-03-03T07:06:05.174Z,37.85
2023-03-03T07:08:33.339Z,39.85
2023-03-03T07:11:09.329Z,39.58
2023-03-03T07:13:44.110Z,42.65
2023-03-03T07:16:13.523Z,34.88
2023-03-03T07:18:53.217Z,37.33
2023-03-03T07:21:38.781Z,33.55
2023-03-03T07:24:31.474Z,37.60
2023-03-03T07:27:19.351Z,47.65
2023-03-03T07:29:49.760Z,32.83
2023-03-03T07:32:44.399Z,49.72
2023-03-03T07:35:38.855Z,40.28
2023-03-03T07:38:25.724Z,38.60
2023-03-03T07:40:56.512Z,44.28
2023-03-03T07:43:40.230Z,40.92
2023-03-03T07:46:10.534Z,42.72
2023-03-03T07:48:42.762Z,41.70
2023-03-03T07:51:41.947Z,33.88
2023-03-03T07:54:29.658Z,38.78
2023-03-03T07:57:11.957Z,30.13
2023-03-03T07:59:48.808Z,36.28
2023-03-03T08:02:42.682Z,23.75
2023-03-03T08:05:40.637Z,31.70
2023-03-03T08:08:10.580Z,20.20
2023-03-03T08:10:55.707Z,23.60
2023-03-03T08:13:28.429Z,30.65
2023-03-03T08:16:15.684Z,26.50
2023-03-03T08:18:49.978Z,19.80
2023-03-03T08:21:20.402Z,20.35
2023-03-03T08:23:51.874Z,24.67
2023-03-03T08:26:21.180Z,16.48
2023-03-03T08:28:48.274Z,20.85
2023-03-03T08:31:30.846Z,18.88
2023-03-03T08:34:05.272Z,23.38
2023-03-03T08:36:34.570Z,14.52
2023-03-03T08:39:03.112Z,14.73
2023-03-03T08:41:30.197Z,12.60
2023-03-03T08:43:57.249Z,13.82
2023-03-03T08:46:24.482Z,14.25
2023-03-03T08:48:51.462Z,12.55
2023-03-03T08:51:18.603Z,21.10
2023-03-03T08:53:45.482Z,16.00
2023-03-03T08:56:12.410Z,12.20
2023-03-03T08:58:49.903Z,13.70
2023-03-03T09:01:26.996Z,16.33
2023-03-03T09:03:54.078Z,17.90
2023-03-03T09:06:20.985Z,17.20
2023-03-03T09:08:48.156Z,14.05
2023-03-03T09:11:22.694Z,14.40
2023-03-03T09:13:53.405Z,15.05
2023-03-03T09:16:23.603Z,14.68
2023-03-03T09:18:50.909Z,11.55
2023-03-03T09:21:26.875Z,12.55
2023-03-03T09:23:59.524Z,13.97
2023-03-03T09:26:48.889Z,17.52
2023-03-03T09:29:15.726Z,13.50
2023-03-03T09:32:01.074Z,12.60
2023-03-03T09:34:42.485Z,13.02
2023-03-03T09:37:29.437Z,9.25
2023-03-03T09:39:57.935Z,12.18
2023-03-03T09:42:47.442Z,10.57
2023-03-03T09:45:43.711Z,10.50
2023-03-03T09:48:59.308Z,8.95
2023-03-03T09:52:12.973Z,8.70
2023-03-03T09:54:56.916Z,9.57
2023-03-03T09:57:39.757Z,7.85
2023-03-03T10:00:09.796Z,9.35
2023-03-03T10:02:57.985Z,9.18
2023-03-03T10:05:30.728Z,7.82
2023-03-03T10:08:54.770Z,8.07
2023-03-03T10:11:41.689Z,7.10
2023-03-03T10:15:12.925Z,7.20
2023-03-03T10:17:52.396Z,8.75
2023-03-03T10:20:51.140Z,6.90
2023-03-03T10:23:52.973Z,7.03
2023-03-03T10:26:45.141Z,5.47
2023-03-03T10:29:50.457Z,7.50
2023-03-03T10:32:54.738Z,6.60
2023-03-03T10:35:36.619Z,5.97
2023-03-03T10:38:17.389Z,10.10
2023-03-03T10:41:12.072Z,7.63
2023-03-03T10:44:25.996Z,7.60
2023-03-03T10:47:21.574Z,6.55
2023-03-03T10:50:07.841Z,9.98
2023-03-03T10:55:49.930Z,5.95
2023-03-03T10:59:07.525Z,7.65
2023-03-03T11:04:18.070Z,9.60
2023-03-03T11:07:05.992Z,4.13
2023-03-03T11:09:39.026Z,6.35
2023-03-03T11:12:23.961Z,4.25
2023-03-03T11:15:08.362Z,4.28
2023-03-03T11:17:56.331Z,6.20
2023-03-03T11:20:37.427Z,6.10
2023-03-03T11:23:38.234Z,5.90
2023-03-03T11:26:52.398Z,4.55
2023-03-03T11:29:30.559Z,7.07
2023-03-03T11:32:01.867Z,6.05
2023-03-03T11:35:09.209Z,5.57
2023-03-03T11:37:59.609Z,5.18
2023-03-03T11:40:49.042Z,14.80
2023-03-03T11:43:38.543Z,7.43
2023-03-03T11:46:22.608Z,11.00
2023-03-03T11:49:29.096Z,3.60
2023-03-03T11:52:25.774Z,9.23
2023-03-03T11:57:26.073Z,10.77
2023-03-03T12:00:30.703Z,5.93
2023-03-03T12:03:37.509Z,5.07
2023-03-03T12:06:32.164Z,4.70
2023-03-03T12:09:01.907Z,9.55
2023-03-03T12:11:54.249Z,4.07
2023-03-03T12:14:44.090Z,4.70
2023-03-03T12:17:50.729Z,4.35
2023-03-03T12:20:45.415Z,6.43
2023-03-03T12:23:57.842Z,4.22
2023-03-03T12:26:41.696Z,4.53
2023-03-03T12:29:38.487Z,4.63
2023-03-03T12:32:28.332Z,3.40
2023-03-03T12:35:24.276Z,3.92
2023-03-03T12:37:59.758Z,4.25
2023-03-03T12:40:33.828Z,7.20
2023-03-03T12:43:26.512Z,5.28
2023-03-03T12:46:28.502Z,3.92
2023-03-03T12:48:55.924Z,5.38
2023-03-03T12:51:48.720Z,3.83
2023-03-03T12:54:25.131Z,6.90
2023-03-03T12:57:14.045Z,5.97
2023-03-03T13:00:16.326Z,5.25
2023-03-03T13:03:02.213Z,3.97
2023-03-03T13:05:31.180Z,2.97
2023-03-03T13:08:40.076Z,5.63
2023-03-03T13:11:56.347Z,3.80
2023-03-03T13:14:44.158Z,3.47
2023-03-03T13:17:59.340Z,5.53
2023-03-03T13:20:50.872Z,5.28
2023-03-03T13:23:27.913Z,3.40
2023-03-03T13:26:07.859Z,4.28
2023-03-03T13:28:41.051Z,3.53
2023-03-03T13:31:32.347Z,5.13
2023-03-03T13:34:02.165Z,4.05
2023-03-03T13:37:06.749Z,7.15
2023-03-03T13:39:57.340Z,3.40
2023-03-03T13:42:39.395Z,1.85
2023-03-03T13:45:58.353Z,6.70
2023-03-03T13:49:02.963Z,6.05
2023-03-03T13:52:12.590Z,4.03
2023-03-03T13:54:55.772Z,2.17
2023-03-03T13:58:01.421Z,2.78
2023-03-03T14:01:19.818Z,2.65
2023-03-03T14:04:10.674Z,2.88
2023-03-03T14:06:41.065Z,3.20
2023-03-03T14:09:27.929Z,2.58
2023-03-03T14:12:18.014Z,3.03
2023-03-03T14:15:04.326Z,5.20
2023-03-03T14:17:55.617Z,4.53
2023-03-03T14:20:34.805Z,6.00
2023-03-03T14:23:14.882Z,3.63
2023-03-03T14:26:03.673Z,2.58
2023-03-03T14:28:49.801Z,3.55
2023-03-03T14:31:26.471Z,4.63
2023-03-03T14:34:11.425Z,3.60
2023-03-03T14:36:43.620Z,2.55
2023-03-03T14:39:35.107Z,4.97
2023-03-03T14:42:14.259Z,4.15
2023-03-03T14:45:04.789Z,8.20
2023-03-03T14:47:32.055Z,3.67
2023-03-03T14:50:03.713Z,2.95
2023-03-03T14:52:34.070Z,5.13
2023-03-03T14:55:06.003Z,3.92
2023-03-03T14:57:37.675Z,3.63
2023-03-03T15:00:14.758Z,4.40
2023-03-03T15:02:52.498Z,3.83
2023-03-03T15:05:31.907Z,3.63
2023-03-03T15:08:10.341Z,2.83
2023-03-03T15:10:45.870Z,4.93
2023-03-03T15:13:23.201Z,1.40
2023-03-03T15:15:59.520Z,3.40
2023-03-03T15:18:29.387Z,2.78
2023-03-03T15:21:05.816Z,2.63
2023-03-03T15:23:57.438Z,1.73
2023-03-03T15:26:59.234Z,5.25
2023-03-03T15:29:56.654Z,2.38
2023-03-03T15:33:11.486Z,2.65
2023-03-03T15:35:51.459Z,2.70
2023-03-03T15:38:46.306Z,4.07
2023-03-03T15:41:39.352Z,4.22
2023-03-03T15:44:37.231Z,2.55
2023-03-03T15:47:35.404Z,3.30
2023-03-03T15:50:33.159Z,2.58
2023-03-03T15:53:46.287Z,6.80
2023-03-03T15:56:36.127Z,2.60
2023-03-03T15:59:46.517Z,5.50
2023-03-03T16:02:24.614Z,2.20
2023-03-03T16:05:28.861Z,1.80
2023-03-03T16:08:17.818Z,3.85
2023-03-03T16:10:59.832Z,2.05
2023-03-03T16:13:49.202Z,3.92
2023-03-03T16:16:47.243Z,1.10
2023-03-03T16:19:26.401Z,1.63
2023-03-03T16:22:37.029Z,2.83
2023-03-03T16:25:26.772Z,3.78
2023-03-03T16:28:30.319Z,1.52
2023-03-03T16:31:48.893Z,2.42
2023-03-03T16:34:26.618Z,3.80
2023-03-03T16:37:07.367Z,2.45
2023-03-03T16:39:59.505Z,1.00
2023-03-03T16:42:32.563Z,3.08
2023-03-03T16:45:24.895Z,2.50
2023-03-03T16:47:58.581Z,2.10
2023-03-03T16:50:37.812Z,1.63
2023-03-03T16:53:29.282Z,4.70
2023-03-03T16:56:22.862Z,2.38
2023-03-03T16:59:28.500Z,3.40
2023-03-03T17:02:38.494Z,2.00
2023-03-03T17:05:25.537Z,3.60
2023-03-03T17:08:29.002Z,2.88
2023-03-03T17:11:12.416Z,3.28
2023-03-03T17:14:13.195Z,1.40
2023-03-03T17:16:56.871Z,3.97
2023-03-03T17:19:45.702Z,1.85
2023-03-03T17:22:46.261Z,2.53
2023-03-03T17:25:30.641Z,3.63
2023-03-03T17:28:22.715Z,3.70
2023-03-03T17:31:12.496Z,1.60
2023-03-03T17:34:00.557Z,2.67
2023-03-03T17:36:33.345Z,2.75
2023-03-03T17:39:50.022Z,4.47
2023-03-03T17:42:56.862Z,4.83
2023-03-03T17:45:25.924Z,4.13
2023-03-03T17:48:23.409Z,7.57
2023-03-03T17:50:59.175Z,2.30
2023-03-03T17:57:18.754Z,2.55
2023-03-03T18:00:14.813Z,5.38
2023-03-03T18:03:16.973Z,5.82
2023-03-03T18:06:11.715Z,3.55
2023-03-03T18:09:16.476Z,6.03
2023-03-03T18:12:06.260Z,3.10
2023-03-03T18:15:13.472Z,3.03
2023-03-03T18:18:26.632Z,4.30
2023-03-03T18:21:17.225Z,6.07
2023-03-03T18:23:46.476Z,7.15
2023-03-03T18:26:31.395Z,10.27
2023-03-03T18:29:22.404Z,7.68
2023-03-03T18:31:58.596Z,11.30
2023-03-03T18:34:40.069Z,3.60
2023-03-03T18:37:31.802Z,6.07
2023-03-03T18:40:04.697Z,5.82
2023-03-03T18:42:53.856Z,5.35
2023-03-03T18:45:21.456Z,8.85
2023-03-03T18:48:02.833Z,8.40
2023-03-03T18:50:43.297Z,4.03
2023-03-03T18:53:21.108Z,13.77
2023-03-03T18:55:51.599Z,13.80
2023-03-03T18:58:18.447Z,8.52
2023-03-03T19:00:55.021Z,8.05
2023-03-03T19:03:35.481Z,13.35
2023-03-03T19:06:04.907Z,15.98
2023-03-03T19:08:56.852Z,10.65
2023-03-03T19:11:38.897Z,16.27
2023-03-03T19:14:27.765Z,9.45
2023-03-03T19:17:00.359Z,20.63
2023-03-03T19:19:36.608Z,7.53
2023-03-03T19:22:30.832Z,9.15
2023-03-03T19:25:21.414Z,13.00
2023-03-03T19:28:27.768Z,15.15
2023-03-03T19:31:42.952Z,14.82
2023-03-03T19:34:53.503Z,13.77
2023-03-03T19:37:51.371Z,14.40
2023-03-03T19:40:48.968Z,8.70
2023-03-03T19:43:42.771Z,15.45
2023-03-03T19:46:46.940Z,15.77
2023-03-03T19:49:53.044Z,17.95
2023-03-03T19:52:52.403Z,11.73
2023-03-03T19:55:28.309Z,11.43
2023-03-03T19:58:18.392Z,14.18
2023-03-03T20:01:09.134Z,20.65
2023-03-03T20:04:31.066Z,7.78
2023-03-03T20:07:24.122Z,12.35
2023-03-03T20:10:27.874Z,14.25
2023-03-03T20:13:09.786Z,11.82
2023-03-03T20:15:50.256Z,11.95
2023-03-03T20:19:04.546Z,17.10
2023-03-03T20:21:38.130Z,10.13
2023-03-03T20:24:16.785Z,14.82
2023-03-03T20:27:06.771Z,8.27
2023-03-03T20:30:25.237Z,13.85
2023-03-03T20:33:19.940Z,14.88
2023-03-03T20:36:27.534Z,4.93
2023-03-03T20:39:09.223Z,14.15
2023-03-03T20:42:05.874Z,8.07
2023-03-03T20:47:50.617Z,10.60
2023-03-03T20:50:37.215Z,13.40
2023-03-03T20:53:22.377Z,11.25
2023-03-03T20:56:06.035Z,14.35
2023-03-03T20:59:02.582Z,17.95
2023-03-03T21:01:53.250Z,13.43
2023-03-03T21:04:30.136Z,18.80
2023-03-03T21:06:59.085Z,6.18
2023-03-03T21:09:39.468Z,15.75
2023-03-03T21:12:29.293Z,13.98
2023-03-03T21:15:08.824Z,7.18
2023-03-03T21:17:36.613Z,12.23
2023-03-03T21:20:28.558Z,14.00
2023-03-03T21:22:57.518Z,13.45
2023-03-03T21:25:44.848Z,11.45
2023-03-03T21:28:31.123Z,11.32
2023-03-03T21:33:50.657Z,15.95
2023-03-03T21:36:38.028Z,13.75
2023-03-03T21:39:38.382Z,11.02
2023-03-03T21:42:19.261Z,12.25
2023-03-03T21:44:51.312Z,13.15
2023-03-03T21:47:23.688Z,20.75
2023-03-03T21:49:52.265Z,14.18
2023-03-03T21:52:22.623Z,18.35
2023-03-03T21:54:51.744Z,12.02
2023-03-03T21:57:19.134Z,19.92
2023-03-03T21:59:46.363Z,18.08
2023-03-03T22:02:13.395Z,19.35
2023-03-03T22:04:41.176Z,17.23
2023-03-03T22:07:09.325Z,11.27
2023-03-03T22:09:36.969Z,14.80
2023-03-03T22:12:05.699Z,14.02
2023-03-03T22:14:32.882Z,11.43
2023-03-03T22:16:59.862Z,8.65
2023-03-03T22:19:27.066Z,16.85
2023-03-03T22:21:54.059Z,11.68
2023-03-03T22:24:21.204Z,18.73
2023-03-03T22:26:48.344Z,13.52
2023-03-03T22:29:17.023Z,14.60
2023-03-03T22:31:44.037Z,19.88
2023-03-03T22:34:11.424Z,14.23
2023-03-03T22:36:38.388Z,13.57
2023-03-03T22:39:05.324Z,15.70
2023-03-03T22:41:32.370Z,7.22
2023-03-03T22:43:59.313Z,15.07
2023-03-03T22:46:26.471Z,14.38
2023-03-03T22:48:54.040Z,7.68
2023-03-03T22:51:22.325Z,16.13
2023-03-03T22:53:49.548Z,16.33
2023-03-03T22:56:16.536Z,18.63
2023-03-03T22:58:43.578Z,10.60
2023-03-03T23:01:10.798Z,15.07
2023-03-03T23:03:37.904Z,12.32
2023-03-03T23:06:05.843Z,14.38
2023-03-03T23:08:32.767Z,13.63
2023-03-03T23:10:59.740Z,13.23
2023-03-03T23:13:27.347Z,14.23
2023-03-03T23:15:58.308Z,20.40
2023-03-03T23:18:26.555Z,15.13
2023-03-03T23:20:53.540Z,12.82
2023-03-03T23:23:21.413Z,23.55
2023-03-03T23:25:48.386Z,9.75
2023-03-03T23:28:15.822Z,11.70
2023-03-03T23:30:43.245Z,8.02
2023-03-03T23:33:10.319Z,16.48
2023-03-03T23:35:37.509Z,12.98
2023-03-03T23:38:04.568Z,15.35
2023-03-03T23:40:31.442Z,13.05
2023-03-03T23:42:58.478Z,12.55
2023-03-03T23:45:25.373Z,13.18
2023-03-03T23:47:52.327Z,9.02
2023-03-03T23:50:19.333Z,6.97
2023-03-03T23:52:46.363Z,17.35
2023-03-03T23:55:13.335Z,18.85
2023-03-03T23:57:40.509Z,16.30
